createdAt,value
2023-01-29T00:01:23.445Z,102625.88
2023-01-29T00:03:52.159Z,102624.84
2023-01-29T00:06:19.169Z,102634.50
2023-01-29T00:08:46.942Z,102631.22
2023-01-29T00:11:14.267Z,102630.66
2023-01-29T00:13:41.608Z,102635.78
2023-01-29T00:16:08.677Z,102629.81
2023-01-29T00:18:38.779Z,102630.75
2023-01-29T00:21:09.238Z,102635.06
2023-01-29T00:23:35.958Z,102628.69
2023-01-29T00:26:02.625Z,102632.44
2023-01-29T00:28:29.466Z,102626.16
2023-01-29T00:30:56.272Z,102633.00
2023-01-29T00:33:23.023Z,102628.69
2023-01-29T00:35:49.710Z,102629.63
2023-01-29T00:38:16.352Z,102629.53
2023-01-29T00:40:53.553Z,102626.91
2023-01-29T00:43:30.606Z,102633.84
2023-01-29T00:45:57.423Z,102628.78
2023-01-29T00:48:24.143Z,102627.94
2023-01-29T00:50:50.779Z,102630.47
2023-01-29T00:53:17.482Z,102633.16
2023-01-29T00:55:45.019Z,102629.81
2023-01-29T00:58:11.783Z,102626.28
2023-01-29T01:00:38.519Z,102623.72
2023-01-29T01:03:06.217Z,102620.19
2023-01-29T01:05:33.555Z,102623.44
2023-01-29T01:08:00.325Z,102615.56
2023-01-29T01:10:29.110Z,102613.81
2023-01-29T01:12:56.053Z,102609.41
2023-01-29T01:15:23.676Z,102602.47
2023-01-29T01:17:52.923Z,102599.94
2023-01-29T01:20:19.830Z,102599.28
2023-01-29T01:22:46.548Z,102598.44
2023-01-29T01:25:13.273Z,102596.00
2023-01-29T01:27:41.514Z,102594.56
2023-01-29T01:30:10.743Z,102583.25
2023-01-29T01:32:37.466Z,102585.78
2023-01-29T01:35:04.413Z,102584.94
2023-01-29T01:37:31.299Z,102582.41
2023-01-29T01:39:58.894Z,102582.41
2023-01-29T01:42:30.801Z,102582.59
2023-01-29T01:45:01.037Z,102579.97
2023-01-29T01:47:31.620Z,102592.31
2023-01-29T01:50:02.895Z,102585.59
2023-01-29T01:52:31.754Z,102592.53
2023-01-29T01:54:59.225Z,102592.78
2023-01-29T01:57:27.800Z,102598.13
2023-01-29T01:59:57.823Z,102589.34
2023-01-29T02:02:34.220Z,102598.03
2023-01-29T02:05:10.655Z,102599.72
2023-01-29T02:07:51.794Z,102599.91
2023-01-29T02:10:18.962Z,102597.66
2023-01-29T02:12:46.474Z,102600.28
2023-01-29T02:15:13.323Z,102596.06
2023-01-29T02:17:40.116Z,102586.31
2023-01-29T02:20:14.907Z,102590.63
2023-01-29T02:22:55.430Z,102592.13
2023-01-29T02:25:31.597Z,102579.66
2023-01-29T02:28:07.887Z,102586.88
2023-01-29T02:30:40.867Z,102588.56
2023-01-29T02:33:17.449Z,102582.19
2023-01-29T02:35:46.942Z,102588.94
2023-01-29T02:38:23.714Z,102583.91
2023-01-29T02:40:51.629Z,102594.38
2023-01-29T02:43:24.772Z,102595.31
2023-01-29T02:46:01.837Z,102598.03
2023-01-29T02:48:34.880Z,102604.09
2023-01-29T02:51:05.976Z,102599.91
2023-01-29T02:53:35.848Z,102606.00
2023-01-29T02:56:08.433Z,102606.94
2023-01-29T02:58:44.605Z,102604.31
2023-01-29T03:01:18.276Z,102591.41
2023-01-29T03:03:48.043Z,102589.72
2023-01-29T03:06:22.720Z,102588.00
2023-01-29T03:08:54.253Z,102593.06
2023-01-29T03:11:21.378Z,102581.72
2023-01-29T03:13:51.390Z,102580.91
2023-01-29T03:16:27.509Z,102581.66
2023-01-29T03:18:57.847Z,102565.06
2023-01-29T03:21:50.949Z,102563.50
2023-01-29T03:24:33.393Z,102556.66
2023-01-29T03:27:12.460Z,102554.88
2023-01-29T03:29:50.388Z,102554.88
2023-01-29T03:32:18.764Z,102552.25
2023-01-29T03:34:48.761Z,102547.09
2023-01-29T03:37:20.415Z,102539.34
2023-01-29T03:39:47.363Z,102536.72
2023-01-29T03:42:23.301Z,102535.88
2023-01-29T03:44:54.603Z,102543.81
2023-01-29T03:47:27.999Z,102541.19
2023-01-29T03:50:00.468Z,102536.72
2023-01-29T03:52:35.178Z,102542.03
2023-01-29T03:55:10.950Z,102535.88
2023-01-29T03:57:45.916Z,102542.88
2023-01-29T04:00:23.013Z,102539.44
2023-01-29T04:02:49.918Z,102535.13
2023-01-29T04:05:19.775Z,102534.28
2023-01-29T04:07:47.554Z,102533.34
2023-01-29T04:10:19.537Z,102523.69
2023-01-29T04:12:48.563Z,102520.06
2023-01-29T04:15:16.760Z,102523.50
2023-01-29T04:17:45.917Z,102529.69
2023-01-29T04:20:12.873Z,102516.59
2023-01-29T04:22:40.519Z,102518.16
2023-01-29T04:25:15.643Z,102520.78
2023-01-29T04:27:46.533Z,102522.56
2023-01-29T04:30:22.778Z,102526.97
2023-01-29T04:32:59.249Z,102522.78
2023-01-29T04:35:31.935Z,102527.16
2023-01-29T04:38:08.440Z,102518.47
2023-01-29T04:40:43.398Z,102519.38
2023-01-29T04:43:16.073Z,102512.38
2023-01-29T04:45:52.486Z,102511.53
2023-01-29T04:48:28.980Z,102513.41
2023-01-29T04:50:55.932Z,102515.28
2023-01-29T04:53:22.837Z,102508.25
2023-01-29T04:55:53.180Z,102503.78
2023-01-29T04:58:29.197Z,102501.16
2023-01-29T05:00:57.582Z,102502.81
2023-01-29T05:03:26.703Z,102501.97
2023-01-29T05:05:54.483Z,102499.19
2023-01-29T05:08:22.937Z,102480.75
2023-01-29T05:10:51.323Z,102478.94
2023-01-29T05:13:19.222Z,102480.00
2023-01-29T05:15:50.427Z,102487.22
2023-01-29T05:18:17.159Z,102478.50
2023-01-29T05:20:44.730Z,102476.81
2023-01-29T05:23:19.689Z,102474.28
2023-01-29T05:25:47.461Z,102463.63
2023-01-29T05:28:17.588Z,102461.00
2023-01-29T05:30:47.277Z,102459.31
2023-01-29T05:33:15.597Z,102468.03
2023-01-29T05:35:42.629Z,102462.78
2023-01-29T05:38:09.688Z,102461.09
2023-01-29T05:40:36.950Z,102450.91
2023-01-29T05:43:04.101Z,102446.78
2023-01-29T05:45:31.439Z,102450.13
2023-01-29T05:47:58.923Z,102446.59
2023-01-29T05:50:26.084Z,102440.88
2023-01-29T05:53:02.508Z,102440.03
2023-01-29T05:55:29.851Z,102441.84
2023-01-29T05:57:56.526Z,102448.56
2023-01-29T06:00:23.523Z,102434.63
2023-01-29T06:02:50.741Z,102436.31
2023-01-29T06:05:17.506Z,102433.69
2023-01-29T06:07:45.584Z,102425.72
2023-01-29T06:10:13.896Z,102424.97
2023-01-29T06:12:41.338Z,102422.25
2023-01-29T06:15:08.594Z,102421.44
2023-01-29T06:17:35.673Z,102422.16
2023-01-29T06:20:02.647Z,102413.16
2023-01-29T06:22:29.386Z,102423.63
2023-01-29T06:24:56.022Z,102417.56
2023-01-29T06:27:22.887Z,102415.59
2023-01-29T06:29:49.608Z,102425.97
2023-01-29T06:32:16.318Z,102433.94
2023-01-29T06:34:42.988Z,102425.63
2023-01-29T06:37:09.713Z,102427.69
2023-01-29T06:39:36.459Z,102432.16
2023-01-29T06:42:03.275Z,102429.28
2023-01-29T06:44:29.882Z,102433.41
2023-01-29T06:46:56.555Z,102425.53
2023-01-29T06:49:23.464Z,102429.09
2023-01-29T06:51:50.213Z,102436.19
2023-01-29T06:54:16.864Z,102432.72
2023-01-29T06:56:43.643Z,102415.91
2023-01-29T06:59:11.128Z,102415.13
2023-01-29T07:01:41.496Z,102410.41
2023-01-29T07:04:08.281Z,102411.22
2023-01-29T07:06:35.108Z,102413.44
2023-01-29T07:09:02.197Z,102406.63
2023-01-29T07:11:28.799Z,102404.19
2023-01-29T07:13:56.282Z,102398.78
2023-01-29T07:16:23.713Z,102403.91
2023-01-29T07:18:50.453Z,102403.63
2023-01-29T07:21:17.147Z,102410.38
2023-01-29T07:23:43.938Z,102413.72
2023-01-29T07:26:10.733Z,102402.94
2023-01-29T07:28:38.302Z,102402.84
2023-01-29T07:31:05.516Z,102396.75
2023-01-29T07:33:32.597Z,102390.88
2023-01-29T07:35:59.376Z,102392.88
2023-01-29T07:38:26.113Z,102386.03
2023-01-29T07:40:53.322Z,102390.41
2023-01-29T07:43:20.083Z,102388.63
2023-01-29T07:45:46.883Z,102386.03
2023-01-29T07:48:13.863Z,102388.00
2023-01-29T07:50:41.120Z,102379.09
2023-01-29T07:53:07.859Z,102387.63
2023-01-29T07:55:34.535Z,102382.25
2023-01-29T07:58:02.663Z,102387.41
2023-01-29T08:00:30.274Z,102394.13
2023-01-29T08:03:06.769Z,102389.75
2023-01-29T08:05:33.860Z,102392.91
2023-01-29T08:08:06.888Z,102383.91
2023-01-29T08:10:35.329Z,102378.34
2023-01-29T08:13:02.949Z,102397.47
2023-01-29T08:15:30.005Z,102386.78
2023-01-29T08:17:58.277Z,102389.22
2023-01-29T08:20:25.786Z,102385.66
2023-01-29T08:23:02.636Z,102388.94
2023-01-29T08:25:29.859Z,102382.56
2023-01-29T08:27:58.101Z,102387.25
2023-01-29T08:30:26.696Z,102389.78
2023-01-29T08:32:53.588Z,102377.53
2023-01-29T08:35:20.811Z,102386.31
2023-01-29T08:37:59.498Z,102381.63
2023-01-29T08:40:27.137Z,102376.16
2023-01-29T08:42:58.866Z,102380.38
2023-01-29T08:45:27.158Z,102385.63
2023-01-29T08:47:53.883Z,102384.78
2023-01-29T08:50:20.728Z,102377.94
2023-01-29T08:52:47.468Z,102380.78
2023-01-29T08:55:14.401Z,102380.47
2023-01-29T08:57:41.612Z,102376.91
2023-01-29T09:00:09.550Z,102376.91
2023-01-29T09:02:36.490Z,102376.69
2023-01-29T09:05:03.310Z,102376.06
2023-01-29T09:07:30.397Z,102375.44
2023-01-29T09:09:57.138Z,102371.22
2023-01-29T09:12:23.849Z,102370.59
2023-01-29T09:14:50.578Z,102371.97
2023-01-29T09:17:17.304Z,102362.41
2023-01-29T09:19:43.957Z,102371.88
2023-01-29T09:22:11.908Z,102371.88
2023-01-29T09:24:38.780Z,102369.06
2023-01-29T09:27:06.379Z,102373.53
2023-01-29T09:29:35.765Z,102368.28
2023-01-29T09:32:03.688Z,102366.63
2023-01-29T09:34:30.578Z,102367.28
2023-01-29T09:36:57.322Z,102372.50
2023-01-29T09:39:24.055Z,102363.81
2023-01-29T09:41:59.780Z,102369.91
2023-01-29T09:44:33.607Z,102360.03
2023-01-29T09:47:04.482Z,102368.34
2023-01-29T09:49:32.775Z,102363.19
2023-01-29T09:52:02.740Z,102369.19
2023-01-29T09:54:40.345Z,102377.91
2023-01-29T09:57:12.352Z,102367.41
2023-01-29T09:59:39.049Z,102362.78
2023-01-29T10:02:15.735Z,102369.91
2023-01-29T10:04:52.822Z,102366.88
2023-01-29T10:07:29.532Z,102366.78
2023-01-29T10:10:05.628Z,102359.94
2023-01-29T10:12:33.608Z,102359.22
2023-01-29T10:15:11.132Z,102354.72
2023-01-29T10:17:50.555Z,102353.38
2023-01-29T10:20:26.613Z,102348.44
2023-01-29T10:23:02.387Z,102354.44
2023-01-29T10:25:29.578Z,102355.19
2023-01-29T10:27:59.236Z,102342.69
2023-01-29T10:30:31.736Z,102343.94
2023-01-29T10:33:01.872Z,102350.78
2023-01-29T10:35:31.567Z,102354.34
2023-01-29T10:38:02.483Z,102346.88
2023-01-29T10:40:38.852Z,102340.78
2023-01-29T10:43:11.578Z,102348.56
2023-01-29T10:45:44.605Z,102337.03
2023-01-29T10:48:22.568Z,102339.34
2023-01-29T10:50:59.042Z,102334.81
2023-01-29T10:53:35.642Z,102322.75
2023-01-29T10:56:22.416Z,102322.66
2023-01-29T10:58:55.634Z,102310.47
2023-01-29T11:01:22.739Z,102309.72
2023-01-29T11:03:56.717Z,102309.63
2023-01-29T11:06:25.768Z,102301.53
2023-01-29T11:08:54.163Z,102296.28
2023-01-29T11:11:22.731Z,102291.34
2023-01-29T11:13:54.195Z,102291.16
2023-01-29T11:16:21.797Z,102287.47
2023-01-29T11:18:55.364Z,102285.56
2023-01-29T11:21:23.052Z,102281.78
2023-01-29T11:23:50.069Z,102278.09
2023-01-29T11:26:22.526Z,102278.00
2023-01-29T11:28:53.500Z,102270.22
2023-01-29T11:31:22.153Z,102270.13
2023-01-29T11:33:51.063Z,102259.28
2023-01-29T11:36:22.220Z,102260.44
2023-01-29T11:39:05.896Z,102242.69
2023-01-29T11:41:43.093Z,102257.38
2023-01-29T11:44:19.557Z,102247.50
2023-01-29T11:46:46.815Z,102241.06
2023-01-29T11:49:23.241Z,102228.88
2023-01-29T11:51:52.798Z,102226.25
2023-01-29T11:54:21.009Z,102217.66
2023-01-29T11:56:48.698Z,102210.75
2023-01-29T11:59:28.030Z,102199.25
2023-01-29T12:01:55.215Z,102198.97
2023-01-29T12:04:23.764Z,102196.19
2023-01-29T12:06:53.434Z,102184.00
2023-01-29T12:09:22.323Z,102180.09
2023-01-29T12:11:49.635Z,102175.47
2023-01-29T12:14:26.735Z,102167.97
2023-01-29T12:17:03.723Z,102175.69
2023-01-29T12:19:36.934Z,102165.56
2023-01-29T12:22:06.968Z,102166.88
2023-01-29T12:24:39.231Z,102157.81
2023-01-29T12:27:06.537Z,102156.88
2023-01-29T12:29:42.729Z,102152.22
2023-01-29T12:32:11.450Z,102149.56
2023-01-29T12:34:42.808Z,102152.69
2023-01-29T12:37:19.629Z,102150.69
2023-01-29T12:39:47.289Z,102136.47
2023-01-29T12:42:19.564Z,102130.38
2023-01-29T12:44:55.846Z,102126.78
2023-01-29T12:47:28.439Z,102114.03
2023-01-29T12:49:57.718Z,102104.69
2023-01-29T12:52:36.772Z,102091.56
2023-01-29T12:55:07.674Z,102104.34
2023-01-29T12:57:36.337Z,102096.56
2023-01-29T13:00:06.567Z,102083.53
2023-01-29T13:02:37.660Z,102075.28
2023-01-29T13:05:05.977Z,102068.16
2023-01-29T13:07:36.303Z,102059.31
2023-01-29T13:10:07.752Z,102068.03
2023-01-29T13:12:35.158Z,102051.06
2023-01-29T13:15:06.525Z,102047.81
2023-01-29T13:17:36.341Z,102035.03
2023-01-29T13:20:11.023Z,102039.78
2023-01-29T13:22:39.409Z,102021.38
2023-01-29T13:25:06.938Z,102023.69
2023-01-29T13:27:35.556Z,102021.66
2023-01-29T13:30:02.602Z,102023.34
2023-01-29T13:32:33.413Z,102017.09
2023-01-29T13:35:01.586Z,102005.41
2023-01-29T13:37:28.624Z,102006.84
2023-01-29T13:39:56.109Z,102008.63
2023-01-29T13:42:26.107Z,101993.53
2023-01-29T13:44:54.539Z,101988.28
2023-01-29T13:47:24.252Z,101980.28
2023-01-29T13:50:00.520Z,101986.94
2023-01-29T13:52:37.924Z,101982.53
2023-01-29T13:55:04.944Z,101978.00
2023-01-29T13:57:41.629Z,101982.31
2023-01-29T14:00:31.228Z,101978.84
2023-01-29T14:03:03.008Z,101976.31
2023-01-29T14:05:29.958Z,101977.25
2023-01-29T14:07:57.234Z,101967.72
2023-01-29T14:10:24.296Z,101968.53
2023-01-29T14:12:52.214Z,101961.47
2023-01-29T14:15:21.501Z,101959.31
2023-01-29T14:18:00.120Z,101958.00
2023-01-29T14:20:38.884Z,101951.50
2023-01-29T14:23:21.844Z,101953.81
2023-01-29T14:25:48.939Z,101950.78
2023-01-29T14:28:19.979Z,101957.34
2023-01-29T14:30:48.300Z,101959.97
2023-01-29T14:33:24.460Z,101956.25
2023-01-29T14:35:52.371Z,101956.38
2023-01-29T14:38:19.663Z,101955.41
2023-01-29T14:40:47.185Z,101955.88
2023-01-29T14:43:20.393Z,101943.81
2023-01-29T14:45:48.108Z,101946.19
2023-01-29T14:48:34.759Z,101949.28
2023-01-29T14:51:11.756Z,101941.09
2023-01-29T14:53:48.621Z,101941.94
2023-01-29T14:56:24.874Z,101933.94
2023-01-29T14:58:55.343Z,101932.97
2023-01-29T15:01:26.924Z,101930.22
2023-01-29T15:03:58.968Z,101928.28
2023-01-29T15:06:30.905Z,101923.59
2023-01-29T15:09:07.080Z,101923.22
2023-01-29T15:11:37.507Z,101924.88
2023-01-29T15:14:08.868Z,101916.97
2023-01-29T15:16:41.309Z,101910.75
2023-01-29T15:19:13.624Z,101917.69
2023-01-29T15:21:40.484Z,101914.94
2023-01-29T15:24:07.812Z,101916.72
2023-01-29T15:26:36.296Z,101924.63
2023-01-29T15:29:04.857Z,101931.56
2023-01-29T15:31:32.320Z,101931.69
2023-01-29T15:34:04.862Z,101920.22
2023-01-29T15:36:32.415Z,101925.47
2023-01-29T15:39:08.469Z,101919.50
2023-01-29T15:41:35.531Z,101906.44
2023-01-29T15:44:02.385Z,101902.16
2023-01-29T15:46:34.485Z,101917.13
2023-01-29T15:49:02.723Z,101913.66
2023-01-29T15:51:29.589Z,101904.66
2023-01-29T15:53:59.576Z,101902.84
2023-01-29T15:56:28.886Z,101899.25
2023-01-29T15:58:57.914Z,101900.66
2023-01-29T16:01:28.193Z,101893.72
2023-01-29T16:03:56.238Z,101900.78
2023-01-29T16:06:24.474Z,101910.50
2023-01-29T16:08:52.508Z,101901.78
2023-01-29T16:11:19.673Z,101900.94
2023-01-29T16:13:48.577Z,101892.31
2023-01-29T16:16:15.687Z,101891.03
2023-01-29T16:18:59.030Z,101891.97
2023-01-29T16:21:37.215Z,101892.25
2023-01-29T16:24:09.861Z,101890.72
2023-01-29T16:26:38.070Z,101885.31
2023-01-29T16:29:06.451Z,101871.59
2023-01-29T16:31:33.371Z,101868.22
2023-01-29T16:34:07.087Z,101872.66
2023-01-29T16:36:34.020Z,101858.69
2023-01-29T16:39:02.488Z,101856.16
2023-01-29T16:41:31.836Z,101859.19
2023-01-29T16:44:00.365Z,101852.38
2023-01-29T16:46:36.530Z,101835.44
2023-01-29T16:49:23.183Z,101848.00
2023-01-29T16:51:50.009Z,101845.75
2023-01-29T16:54:18.602Z,101840.66
2023-01-29T16:56:46.699Z,101842.66
2023-01-29T16:59:18.069Z,101850.56
2023-01-29T17:01:45.289Z,101848.09
2023-01-29T17:04:15.086Z,101844.63
2023-01-29T17:06:44.707Z,101846.53
2023-01-29T17:09:21.041Z,101841.25
2023-01-29T17:11:50.535Z,101840.19
2023-01-29T17:14:19.509Z,101840.44
2023-01-29T17:16:50.553Z,101836.28
2023-01-29T17:19:20.888Z,101833.75
2023-01-29T17:21:47.770Z,101831.97
2023-01-29T17:24:14.592Z,101843.31
2023-01-29T17:26:41.919Z,101844.00
2023-01-29T17:29:18.402Z,101848.19
2023-01-29T17:31:45.194Z,101849.88
2023-01-29T17:34:14.432Z,101846.16
2023-01-29T17:36:41.734Z,101847.94
2023-01-29T17:39:19.033Z,101841.16
2023-01-29T17:41:47.629Z,101844.84
2023-01-29T17:44:14.440Z,101839.00
2023-01-29T17:46:41.248Z,101830.41
2023-01-29T17:49:21.094Z,101820.88
2023-01-29T17:51:49.368Z,101801.16
2023-01-29T17:54:16.363Z,101780.34
2023-01-29T17:56:43.343Z,101775.22
2023-01-29T17:59:14.613Z,101767.59
2023-01-29T18:01:41.843Z,101760.53
2023-01-29T18:04:09.644Z,101781.69
2023-01-29T18:06:36.449Z,101796.63
2023-01-29T18:09:03.797Z,101800.25
2023-01-29T18:11:30.598Z,101808.38
2023-01-29T18:13:57.469Z,101812.34
2023-01-29T18:16:26.848Z,101815.94
2023-01-29T18:18:53.716Z,101814.25
2023-01-29T18:21:20.480Z,101819.63
2023-01-29T18:23:47.310Z,101834.56
2023-01-29T18:26:15.960Z,101837.19
2023-01-29T18:28:43.950Z,101848.56
2023-01-29T18:31:13.174Z,101849.16
2023-01-29T18:33:40.767Z,101837.91
2023-01-29T18:36:08.287Z,101836.47
2023-01-29T18:38:35.175Z,101828.72
2023-01-29T18:41:11.889Z,101817.59
2023-01-29T18:43:39.727Z,101817.88
2023-01-29T18:46:06.865Z,101824.81
2023-01-29T18:48:34.049Z,101836.28
2023-01-29T18:51:01.093Z,101840.81
2023-01-29T18:53:27.873Z,101842.63
2023-01-29T18:55:56.130Z,101872.34
2023-01-29T18:58:26.541Z,101891.59
2023-01-29T19:00:56.449Z,101886.47
2023-01-29T19:03:23.330Z,101879.44
2023-01-29T19:05:50.145Z,101865.56
2023-01-29T19:08:17.024Z,101862.69
2023-01-29T19:10:43.829Z,101861.16
2023-01-29T19:13:10.815Z,101862.22
2023-01-29T19:15:37.562Z,101854.59
2023-01-29T19:18:04.662Z,101876.56
2023-01-29T19:20:31.469Z,101866.88
2023-01-29T19:22:58.255Z,101887.91
2023-01-29T19:25:25.158Z,101877.41
2023-01-29T19:27:51.961Z,101870.34
2023-01-29T19:30:19.475Z,101851.38
2023-01-29T19:32:46.346Z,101854.22
2023-01-29T19:35:13.136Z,101857.97
2023-01-29T19:37:40.700Z,101852.94
2023-01-29T19:40:08.510Z,101859.16
2023-01-29T19:42:37.602Z,101848.75
2023-01-29T19:45:05.376Z,101843.63
2023-01-29T19:47:32.750Z,101853.56
2023-01-29T19:49:59.749Z,101838.84
2023-01-29T19:52:50.155Z,101864.28
2023-01-29T19:55:18.751Z,101843.53
2023-01-29T19:57:45.827Z,101835.63
2023-01-29T20:00:12.997Z,101827.88
2023-01-29T20:02:39.729Z,101856.91
2023-01-29T20:05:08.313Z,101840.31
2023-01-29T20:07:36.131Z,101836.00
2023-01-29T20:10:04.416Z,101840.53
2023-01-29T20:12:31.540Z,101835.28
2023-01-29T20:14:58.545Z,101813.56
2023-01-29T20:17:25.654Z,101809.50
2023-01-29T20:19:52.830Z,101802.81
2023-01-29T20:22:20.133Z,101798.66
2023-01-29T20:24:47.153Z,101782.16
2023-01-29T20:27:14.427Z,101774.53
2023-01-29T20:29:41.361Z,101785.16
2023-01-29T20:32:09.207Z,101768.56
2023-01-29T20:34:36.572Z,101764.25
2023-01-29T20:37:03.377Z,101773.22
2023-01-29T20:39:30.201Z,101774.06
2023-01-29T20:41:57.494Z,101772.41
2023-01-29T20:44:25.032Z,101775.88
2023-01-29T20:46:52.260Z,101782.91
2023-01-29T20:49:19.478Z,101789.34
2023-01-29T20:51:46.547Z,101798.91
2023-01-29T20:54:13.479Z,101812.16
2023-01-29T20:56:46.030Z,101824.34
2023-01-29T20:59:13.897Z,101816.31
2023-01-29T21:01:41.584Z,101819.91
2023-01-29T21:04:08.363Z,101821.72
2023-01-29T21:06:35.069Z,101820.88
2023-01-29T21:09:01.788Z,101826.81
2023-01-29T21:11:28.823Z,101834.69
2023-01-29T21:13:57.942Z,101837.56
2023-01-29T21:16:26.435Z,101823.72
2023-01-29T21:19:00.319Z,101826.34
2023-01-29T21:21:27.315Z,101819.31
2023-01-29T21:23:54.572Z,101823.72
2023-01-29T21:26:21.355Z,101826.34
2023-01-29T21:28:48.109Z,101822.06
2023-01-29T21:31:16.482Z,101825.75
2023-01-29T21:33:43.540Z,101824.22
2023-01-29T21:36:10.402Z,101816.34
2023-01-29T21:38:37.410Z,101801.19
2023-01-29T21:41:05.202Z,101804.75
2023-01-29T21:43:31.955Z,101809.16
2023-01-29T21:46:05.321Z,101818.25
2023-01-29T21:48:32.454Z,101816.72
2023-01-29T21:50:59.423Z,101808.69
2023-01-29T21:53:26.317Z,101817.28
2023-01-29T21:55:53.161Z,101818.25
2023-01-29T21:58:20.884Z,101798.19
2023-01-29T22:00:49.080Z,101808.09
2023-01-29T22:03:16.531Z,101806.69
2023-01-29T22:05:43.278Z,101824.91
2023-01-29T22:08:11.524Z,101826.47
2023-01-29T22:10:39.311Z,101817.28
2023-01-29T22:13:06.067Z,101808.56
2023-01-29T22:15:32.792Z,101809.41
2023-01-29T22:17:59.622Z,101779.69
2023-01-29T22:20:30.557Z,101784.47
2023-01-29T22:22:59.112Z,101781.00
2023-01-29T22:25:25.887Z,101768.25
2023-01-29T22:27:52.797Z,101767.41
2023-01-29T22:30:20.045Z,101767.41
2023-01-29T22:32:47.064Z,101772.41
2023-01-29T22:35:13.845Z,101771.94
2023-01-29T22:37:40.711Z,101775.06
2023-01-29T22:40:07.863Z,101770.97
2023-01-29T22:42:34.589Z,101771.13
2023-01-29T22:45:01.296Z,101782.66
2023-01-29T22:47:27.938Z,101777.41
2023-01-29T22:49:54.607Z,101782.66
2023-01-29T22:52:23.732Z,101774.56
2023-01-29T22:54:51.620Z,101773.75
2023-01-29T22:57:19.387Z,101778.16
2023-01-29T22:59:46.228Z,101777.91
2023-01-29T23:02:12.868Z,101768.34
2023-01-29T23:04:39.629Z,101766.09
2023-01-29T23:07:06.411Z,101755.00
2023-01-29T23:09:33.094Z,101757.63
2023-01-29T23:12:03.544Z,101764.75
2023-01-29T23:14:30.149Z,101756.91
2023-01-29T23:16:57.162Z,101758.81
2023-01-29T23:19:24.015Z,101753.56
2023-01-29T23:21:50.737Z,101748.31
2023-01-29T23:24:17.423Z,101745.56
2023-01-29T23:26:54.316Z,101739.63
2023-01-29T23:29:21.648Z,101730.06
2023-01-29T23:31:48.478Z,101739.63
2023-01-29T23:34:15.364Z,101744.75
2023-01-29T23:36:42.103Z,101746.28
2023-01-29T23:39:08.835Z,101735.91
2023-01-29T23:41:36.400Z,101735.91
2023-01-29T23:44:03.231Z,101742.00
2023-01-29T23:46:30.163Z,101741.28
2023-01-29T23:48:56.997Z,101723.75
2023-01-29T23:51:23.853Z,101728.88
2023-01-29T23:53:50.602Z,101734.13
2023-01-29T23:56:17.417Z,101718.50
2023-01-29T23:58:45.116Z,101721.34
